Time;durP1;ratioP1;P1;durP2;ratioP2;P2;SDS_P1;SDS_P2;PMS_P1;PMS_P2;Temp;Humidity;BMP_temperature;BMP_pressure;BME280_temperature;BME280_humidity;BME280_pressure;Samples;Min_cycle;Max_cycle;Signal;HPM_P1;HPM_P2
2021/10/03 00:00:30;;;;;;;;;23.00;23.00;18.90;36.20;;;;;;5137206;27;8764;-60
2021/10/03 00:02:58;;;;;;;;;25.33;25.00;18.90;35.80;;;;;;5137140;27;8934;-59
2021/10/03 00:05:24;;;;;;;;;26.00;26.00;18.90;35.70;;;;;;5137086;27;8795;-59
2021/10/03 00:07:56;;;;;;;;;28.33;28.33;18.90;36.00;;;;;;5137008;27;8813;-59
2021/10/03 00:10:25;;;;;;;;;33.67;33.00;18.90;36.10;;;;;;5137130;27;9552;-59
2021/10/03 00:12:51;;;;;;;;;28.33;28.33;18.80;36.20;;;;;;5136842;27;8756;-58
2021/10/03 00:15:19;;;;;;;;;27.67;27.67;18.90;36.20;;;;;;5136825;27;8783;-59
2021/10/03 00:17:45;;;;;;;;;29.33;29.33;18.80;36.10;;;;;;5136840;27;8767;-58
2021/10/03 00:20:13;;;;;;;;;28.00;28.00;18.80;36.60;;;;;;5137056;27;8764;-59
2021/10/03 00:22:39;;;;;;;;;22.00;22.00;18.80;36.50;;;;;;5136844;27;8743;-57
2021/10/03 00:25:13;;;;;;;;;33.00;32.00;18.70;36.10;;;;;;5136719;27;8764;-57
2021/10/03 00:27:41;;;;;;;;;30.67;29.67;18.70;36.20;;;;;;5136970;27;8751;-58
2021/10/03 00:30:07;;;;;;;;;31.00;31.00;18.70;36.10;;;;;;5136863;27;9460;-57
2021/10/03 00:32:33;;;;;;;;;28.33;28.33;18.70;36.10;;;;;;5136475;27;8862;-58
2021/10/03 00:34:58;;;;;;;;;25.00;24.33;18.70;36.20;;;;;;5136821;27;8857;-58
2021/10/03 00:37:25;;;;;;;;;24.33;24.33;18.70;36.10;;;;;;5136538;27;8831;-61
2021/10/03 00:39:51;;;;;;;;;29.67;29.33;18.70;36.20;;;;;;5136264;27;8867;-59
2021/10/03 00:42:17;;;;;;;;;29.33;29.33;18.70;36.20;;;;;;5136366;27;8771;-59
2021/10/03 00:44:43;;;;;;;;;32.00;32.00;18.70;36.30;;;;;;5136403;27;8774;-58
2021/10/03 00:47:09;;;;;;;;;27.00;27.00;18.70;36.60;;;;;;5136602;27;8767;-60
2021/10/03 00:49:36;;;;;;;;;27.67;27.67;18.60;36.70;;;;;;5136400;27;9381;-59
2021/10/03 00:52:07;;;;;;;;;31.67;30.67;18.50;36.70;;;;;;5117934;27;8803;-60
2021/10/03 00:54:34;;;;;;;;;31.00;31.00;18.50;37.00;;;;;;5135227;27;8755;-59
2021/10/03 00:57:00;;;;;;;;;29.67;29.67;18.40;37.30;;;;;;5136119;27;8767;-57
2021/10/03 00:59:27;;;;;;;;;30.75;30.75;18.40;37.70;;;;;;5136005;27;8808;-60
2021/10/03 01:01:53;;;;;;;;;32.00;32.00;18.40;38.00;;;;;;5136340;27;8759;-59
2021/10/03 01:04:19;;;;;;;;;30.67;29.67;18.40;38.10;;;;;;5136298;27;8801;-60
2021/10/03 01:06:45;;;;;;;;;29.67;29.67;18.40;38.30;;;;;;5136044;27;8764;-58
2021/10/03 01:09:12;;;;;;;;;31.00;30.67;18.40;38.70;;;;;;5136019;27;8748;-58
2021/10/03 01:11:38;;;;;;;;;31.00;31.00;18.30;38.80;;;;;;5135812;27;8787;-59
2021/10/03 01:14:04;;;;;;;;;30.33;30.33;18.30;39.10;;;;;;5135882;27;8866;-57
2021/10/03 01:16:30;;;;;;;;;30.33;30.33;18.30;39.30;;;;;;5135867;27;8760;-59
2021/10/03 01:18:56;;;;;;;;;27.33;27.33;18.30;39.30;;;;;;5134757;27;8763;-58
2021/10/03 01:21:23;;;;;;;;;28.00;28.00;18.30;39.50;;;;;;5136018;27;8743;-57
2021/10/03 01:23:51;;;;;;;;;29.33;29.33;18.30;39.60;;;;;;5135707;27;8763;-58
2021/10/03 01:26:17;;;;;;;;;32.00;32.00;18.20;39.60;;;;;;5135672;27;8767;-59
2021/10/03 01:28:43;;;;;;;;;27.67;27.67;18.20;40.00;;;;;;5135586;27;8771;-58
2021/10/03 01:31:10;;;;;;;;;30.33;30.33;18.20;40.30;;;;;;5135464;27;8791;-59
2021/10/03 01:33:36;;;;;;;;;29.00;29.00;18.10;40.30;;;;;;5135715;27;8787;-59
2021/10/03 01:36:05;;;;;;;;;28.00;28.00;18.10;40.40;;;;;;5135508;27;8883;-58
2021/10/03 01:38:32;;;;;;;;;27.67;27.67;18.10;41.70;;;;;;5135521;27;8775;-58
2021/10/03 01:40:58;;;;;;;;;27.33;27.33;18.00;40.80;;;;;;5135396;27;8803;-58
2021/10/03 01:43:24;;;;;;;;;25.00;25.00;18.00;40.90;;;;;;5135654;27;8771;-57
2021/10/03 01:45:50;;;;;;;;;32.00;32.00;18.00;41.10;;;;;;5135421;27;8892;-58
2021/10/03 01:48:22;;;;;;;;;22.33;22.33;17.90;41.00;;;;;;5117367;27;8763;-58
2021/10/03 01:50:50;;;;;;;;;29.00;28.67;17.90;40.70;;;;;;5135321;27;8875;-57
2021/10/03 01:53:19;;;;;;;;;26.33;26.33;17.90;40.70;;;;;;5135309;27;8767;-58
2021/10/03 01:55:46;;;;;;;;;32.75;31.75;17.90;41.00;;;;;;5135354;27;8824;-58
2021/10/03 01:58:14;;;;;;;;;29.67;29.67;17.90;42.10;;;;;;5135190;27;8762;-58
2021/10/03 02:00:42;;;;;;;;;26.00;26.00;17.90;40.70;;;;;;5117071;27;8882;-58
2021/10/03 02:03:09;;;;;;;;;29.00;29.00;17.90;40.20;;;;;;5135437;27;8779;-58
2021/10/03 02:05:40;;;;;;;;;31.00;31.00;17.90;40.30;;;;;;5137744;27;9444;-58
2021/10/03 02:08:07;;;;;;;;;26.33;26.33;17.80;40.40;;;;;;5139438;27;8756;-58
2021/10/03 02:10:35;;;;;;;;;28.67;28.67;17.70;40.40;;;;;;5139466;27;9488;-58
2021/10/03 02:13:02;;;;;;;;;26.00;26.00;17.60;40.60;;;;;;5139214;27;8756;-59
2021/10/03 02:15:28;;;;;;;;;28.00;28.00;17.60;40.90;;;;;;5139474;27;8764;-58
2021/10/03 02:17:53;;;;;;;;;27.75;27.75;17.50;41.10;;;;;;5139460;27;9429;-58
2021/10/03 02:20:20;;;;;;;;;30.67;30.67;17.40;41.30;;;;;;5139154;27;8898;-57
2021/10/03 02:22:47;;;;;;;;;34.00;34.00;17.30;41.20;;;;;;5139088;27;8755;-59
2021/10/03 02:25:13;;;;;;;;;25.33;25.33;17.20;41.50;;;;;;5139134;27;8748;-58
2021/10/03 02:27:39;;;;;;;;;25.00;25.00;17.20;41.30;;;;;;5139277;27;8767;-59
2021/10/03 02:30:08;;;;;;;;;23.00;23.00;17.20;41.20;;;;;;5138885;27;8759;-59
2021/10/03 02:32:34;;;;;;;;;27.00;26.33;17.30;40.90;;;;;;5138880;27;8775;-60
2021/10/03 02:35:01;;;;;;;;;22.67;21.67;17.30;40.80;;;;;;5139222;27;8764;-59
2021/10/03 02:37:27;;;;;;;;;26.67;26.67;17.30;41.10;;;;;;5138909;27;8764;-58
2021/10/03 02:39:53;;;;;;;;;26.00;26.00;17.40;41.20;;;;;;5138814;27;8893;-60
2021/10/03 02:42:20;;;;;;;;;27.00;27.00;17.50;41.20;;;;;;5138751;27;8763;-59
2021/10/03 02:44:46;;;;;;;;;29.75;29.75;17.60;41.10;;;;;;5138720;27;8779;-59
2021/10/03 02:47:13;;;;;;;;;25.67;25.67;17.60;40.80;;;;;;5138700;27;8743;-57
2021/10/03 02:49:44;;;;;;;;;27.50;26.50;17.50;40.90;;;;;;5138660;27;8755;-59
2021/10/03 02:52:11;;;;;;;;;27.50;27.50;17.50;41.10;;;;;;5138531;27;8833;-59
2021/10/03 02:54:38;;;;;;;;;32.50;30.25;17.20;41.70;;;;;;5138469;27;8767;-60
2021/10/03 02:57:06;;;;;;;;;29.00;29.00;17.20;42.10;;;;;;5138529;27;8755;-59
2021/10/03 02:59:32;;;;;;;;;29.75;29.75;17.10;42.50;;;;;;5138717;27;8759;-58
2021/10/03 03:01:58;;;;;;;;;29.75;29.75;17.00;42.90;;;;;;5138423;27;8793;-58
2021/10/03 03:04:24;;;;;;;;;25.25;25.25;17.00;43.30;;;;;;5138761;27;8808;-59
2021/10/03 03:06:50;;;;;;;;;30.00;30.00;17.00;43.30;;;;;;5138387;27;8747;-59
2021/10/03 03:09:16;;;;;;;;;31.50;31.50;16.90;43.40;;;;;;5138193;27;8897;-60
2021/10/03 03:11:42;;;;;;;;;26.25;26.25;17.00;43.50;;;;;;5138102;27;8803;-60
2021/10/03 03:14:09;;;;;;;;;29.00;29.00;17.00;43.40;;;;;;5138145;27;8755;-60
2021/10/03 03:16:42;;;;;;;;;32.75;32.00;17.00;43.60;;;;;;5137010;27;8756;-58
2021/10/03 03:19:08;;;;;;;;;33.50;32.00;17.00;43.60;;;;;;5138299;27;8755;-60
2021/10/03 03:21:34;;;;;;;;;28.75;28.75;16.90;43.90;;;;;;5138053;27;8784;-59
2021/10/03 03:23:59;;;;;;;;;27.00;27.00;17.00;44.00;;;;;;5137952;27;8760;-59
2021/10/03 03:26:25;;;;;;;;;25.75;25.75;17.10;44.00;;;;;;5138175;27;8790;-59
2021/10/03 03:28:51;;;;;;;;;29.75;29.00;17.00;43.80;;;;;;5137816;27;8763;-60
2021/10/03 03:31:17;;;;;;;;;27.75;27.75;17.10;43.80;;;;;;5137720;27;9425;-57
2021/10/03 03:33:42;;;;;;;;;31.00;31.00;17.10;43.80;;;;;;5137851;27;8783;-60
2021/10/03 03:36:08;;;;;;;;;27.67;27.67;16.80;43.90;;;;;;5138021;27;8755;-60
2021/10/03 03:38:36;;;;;;;;;28.25;28.25;16.50;44.30;;;;;;5137661;27;8776;-58
2021/10/03 03:41:04;;;;;;;;;36.00;34.75;16.50;44.50;;;;;;5137850;27;8799;-59
2021/10/03 03:43:30;;;;;;;;;32.50;32.50;16.40;43.80;;;;;;5137570;27;8928;-59
2021/10/03 03:45:56;;;;;;;;;26.75;26.75;16.40;43.80;;;;;;5137565;27;8850;-59
2021/10/03 03:48:22;;;;;;;;;36.00;34.50;16.40;43.50;;;;;;5137442;27;8855;-58
2021/10/03 03:50:48;;;;;;;;;30.75;30.75;16.40;43.20;;;;;;5137686;27;8802;-57
2021/10/03 03:53:14;;;;;;;;;30.50;30.50;16.50;43.10;;;;;;5137388;27;8956;-59
2021/10/03 03:55:40;;;;;;;;;35.00;33.50;16.40;42.90;;;;;;5137339;27;8873;-59
2021/10/03 03:58:06;;;;;;;;;32.50;31.25;16.40;42.90;;;;;;5137557;27;8744;-59
2021/10/03 04:00:32;;;;;;;;;32.00;32.00;16.60;42.60;;;;;;5137554;27;8946;-59
2021/10/03 04:02:57;;;;;;;;;35.75;34.75;16.40;43.50;;;;;;5137363;27;8811;-58
2021/10/03 04:05:23;;;;;;;;;35.00;33.00;16.60;42.90;;;;;;5137427;27;9405;-59
2021/10/03 04:07:49;;;;;;;;;35.50;35.00;16.70;42.40;;;;;;5137084;27;8790;-58
2021/10/03 04:10:15;;;;;;;;;33.75;33.50;16.70;42.30;;;;;;5137178;27;8803;-58
2021/10/03 04:12:40;;;;;;;;;33.00;33.00;16.70;42.30;;;;;;5137237;27;8781;-59
2021/10/03 04:15:08;;;;;;;;;33.50;33.00;16.80;42.20;;;;;;5137015;27;8764;-58
2021/10/03 04:17:34;;;;;;;;;27.50;26.00;16.80;42.00;;;;;;5137210;27;8893;-60
2021/10/03 04:20:01;;;;;;;;;42.50;38.00;16.80;41.90;;;;;;5136835;27;8874;-59
2021/10/03 04:22:27;;;;;;;;;53.25;46.00;16.60;42.00;;;;;;5136779;27;8858;-59
2021/10/03 04:24:53;;;;;;;;;45.75;40.75;16.30;42.90;;;;;;5136812;27;8747;-60
2021/10/03 04:27:18;;;;;;;;;40.75;38.00;16.30;43.60;;;;;;5136654;27;8796;-57
2021/10/03 04:29:44;;;;;;;;;46.00;39.50;16.40;43.90;;;;;;5118473;27;8775;-60
2021/10/03 04:32:10;;;;;;;;;35.00;35.00;16.50;43.70;;;;;;5136925;27;8787;-59
2021/10/03 04:34:36;;;;;;;;;33.00;32.75;16.60;43.50;;;;;;5136994;27;8780;-59
2021/10/03 04:37:02;;;;;;;;;27.50;27.50;16.70;43.60;;;;;;5134803;27;8788;-60
2021/10/03 04:39:28;;;;;;;;;35.00;35.00;16.80;43.60;;;;;;5123680;27;8873;-59
2021/10/03 04:41:54;;;;;;;;;28.25;28.25;16.80;43.60;;;;;;5115833;28;8785;-60
2021/10/03 04:44:21;;;;;;;;;28.00;28.00;16.50;44.00;;;;;;5116264;28;8919;-60
2021/10/03 04:46:47;;;;;;;;;25.50;25.50;16.50;44.40;;;;;;5115766;28;8789;-60
2021/10/03 04:49:13;;;;;;;;;27.00;27.00;16.50;44.50;;;;;;5116039;28;8785;-58
2021/10/03 04:51:38;;;;;;;;;26.25;26.25;16.40;44.50;;;;;;5115803;28;8794;-57
2021/10/03 04:54:04;;;;;;;;;25.00;25.00;16.30;44.70;;;;;;5115676;28;8777;-58
2021/10/03 04:56:30;;;;;;;;;31.50;31.50;16.20;44.70;;;;;;5115579;28;8800;-59
2021/10/03 04:58:56;;;;;;;;;31.75;31.25;16.30;44.50;;;;;;5115564;28;8754;-58
2021/10/03 05:01:21;;;;;;;;;41.75;37.75;16.20;44.70;;;;;;5115522;28;8762;-59
2021/10/03 05:03:49;;;;;;;;;46.75;40.75;16.10;45.00;;;;;;5115664;28;8782;-58
2021/10/03 05:06:14;;;;;;;;;42.75;38.25;16.20;45.10;;;;;;5115441;28;8754;-58
2021/10/03 05:08:40;;;;;;;;;39.50;37.50;16.40;44.90;;;;;;5115627;28;8862;-59
2021/10/03 05:11:06;;;;;;;;;41.00;38.25;16.50;44.60;;;;;;5115350;28;8866;-58
2021/10/03 05:13:33;;;;;;;;;36.00;33.50;16.50;44.40;;;;;;5115589;28;8772;-58
2021/10/03 05:15:59;;;;;;;;;33.50;33.25;16.40;44.30;;;;;;5115293;28;8785;-59
2021/10/03 05:18:26;;;;;;;;;33.50;33.50;16.50;44.30;;;;;;5115514;28;9410;-59
2021/10/03 05:20:52;;;;;;;;;29.25;29.25;16.50;44.30;;;;;;5115440;28;8765;-58
2021/10/03 05:23:18;;;;;;;;;30.75;30.75;16.60;43.90;;;;;;5115149;28;9427;-58
2021/10/03 05:25:44;;;;;;;;;24.75;24.75;16.50;44.00;;;;;;5114988;28;8823;-58
2021/10/03 05:28:10;;;;;;;;;34.50;33.75;16.50;44.50;;;;;;5115062;28;8757;-60
2021/10/03 05:30:36;;;;;;;;;31.00;31.00;16.60;44.50;;;;;;5114850;28;8903;-58
2021/10/03 05:33:01;;;;;;;;;27.75;26.00;16.70;44.10;;;;;;5115185;28;8808;-58
2021/10/03 05:35:27;;;;;;;;;29.50;29.25;16.70;43.90;;;;;;5115000;28;8816;-59
2021/10/03 05:37:53;;;;;;;;;35.00;33.00;16.60;44.30;;;;;;5115008;28;8758;-56
2021/10/03 05:40:19;;;;;;;;;38.25;35.75;16.60;44.40;;;;;;5114173;28;8821;-58
2021/10/03 05:42:45;;;;;;;;;39.00;37.25;16.70;44.10;;;;;;5114884;28;8788;-59
2021/10/03 05:45:11;;;;;;;;;38.25;36.75;16.60;44.40;;;;;;5115031;28;8757;-60
2021/10/03 05:47:37;;;;;;;;;39.00;36.50;16.60;44.40;;;;;;5114996;28;8831;-58
2021/10/03 05:50:05;;;;;;;;;40.75;37.00;16.60;44.20;;;;;;5115013;28;8762;-58
2021/10/03 05:52:31;;;;;;;;;43.25;39.00;16.70;44.00;;;;;;5114745;28;8846;-59
2021/10/03 05:54:57;;;;;;;;;44.75;41.00;16.80;44.10;;;;;;5114945;28;8777;-59
2021/10/03 05:57:23;;;;;;;;;54.50;44.50;16.80;43.90;;;;;;5114808;28;8888;-59
2021/10/03 05:59:48;;;;;;;;;50.00;44.00;16.90;43.80;;;;;;5114941;28;8758;-59
2021/10/03 06:02:14;;;;;;;;;51.00;43.25;17.00;43.40;;;;;;5114661;28;8770;-59
2021/10/03 06:04:40;;;;;;;;;61.00;50.50;17.10;43.20;;;;;;5115029;28;8800;-59
2021/10/03 06:07:06;;;;;;;;;55.50;46.50;17.20;42.90;;;;;;5114617;28;8796;-58
2021/10/03 06:09:31;;;;;;;;;59.75;50.00;17.20;43.10;;;;;;5114603;28;8793;-59
2021/10/03 06:11:57;;;;;;;;;65.00;53.00;17.30;42.90;;;;;;5114533;28;8785;-57
2021/10/03 06:14:23;;;;;;;;;55.25;47.25;17.30;42.50;;;;;;5114831;28;8868;-60
2021/10/03 06:16:49;;;;;;;;;48.00;42.00;17.30;42.60;;;;;;5114796;28;8777;-59
2021/10/03 06:19:15;;;;;;;;;46.25;40.75;17.10;43.00;;;;;;5114778;28;8784;-59
2021/10/03 06:21:41;;;;;;;;;39.00;35.50;17.00;43.10;;;;;;5114558;28;8749;-57
2021/10/03 06:24:08;;;;;;;;;35.75;33.75;17.00;43.40;;;;;;5114521;28;8770;-58
2021/10/03 06:26:35;;;;;;;;;32.25;32.25;17.10;43.40;;;;;;5114478;28;8773;-59
2021/10/03 06:29:01;;;;;;;;;29.75;29.75;17.20;43.40;;;;;;5114716;28;8750;-60
2021/10/03 06:31:27;;;;;;;;;26.33;26.33;17.10;43.20;;;;;;5114329;28;8785;-56
2021/10/03 06:33:52;;;;;;;;;24.75;23.25;17.30;43.30;;;;;;5114804;28;8786;-60
2021/10/03 06:36:19;;;;;;;;;28.00;28.00;17.50;43.30;;;;;;5114336;28;8866;-59
2021/10/03 06:38:45;;;;;;;;;29.25;29.25;17.70;43.00;;;;;;5114325;28;8845;-58
2021/10/03 06:41:10;;;;;;;;;28.50;28.50;17.80;42.50;;;;;;5114433;28;8757;-60
2021/10/03 06:43:38;;;;;;;;;36.00;35.00;17.80;42.40;;;;;;5130518;28;8798;-60
2021/10/03 06:46:05;;;;;;;;;31.00;31.00;17.80;42.40;;;;;;5114287;28;9491;-58
2021/10/03 06:48:32;;;;;;;;;34.75;32.75;18.00;42.70;;;;;;5114175;28;8780;-58
2021/10/03 06:50:59;;;;;;;;;32.75;32.00;18.10;42.50;;;;;;5115220;28;8800;-59
2021/10/03 06:53:25;;;;;;;;;32.00;32.00;18.20;42.30;;;;;;5117907;28;8754;-59
2021/10/03 06:55:51;;;;;;;;;34.25;33.25;18.10;42.40;;;;;;5117043;28;8766;-61
2021/10/03 06:58:17;;;;;;;;;35.00;33.00;18.20;42.30;;;;;;5116403;28;8780;-60
2021/10/03 07:00:43;;;;;;;;;37.25;34.00;18.30;42.10;;;;;;5116929;28;8782;-59
2021/10/03 07:03:08;;;;;;;;;29.67;29.67;18.40;42.00;;;;;;5117319;28;8802;-59
2021/10/03 07:05:34;;;;;;;;;24.00;23.67;18.50;41.60;;;;;;5099914;28;9571;-58
2021/10/03 07:08:01;;;;;;;;;26.67;26.67;18.50;41.60;;;;;;5117235;28;8770;-59
2021/10/03 07:10:26;;;;;;;;;31.67;31.00;18.60;41.70;;;;;;5116404;28;9431;-59
2021/10/03 07:12:52;;;;;;;;;32.00;31.67;18.70;41.60;;;;;;5116875;28;8789;-58
2021/10/03 07:15:18;;;;;;;;;27.67;27.67;18.80;41.30;;;;;;5117765;28;8773;-59
2021/10/03 07:17:44;;;;;;;;;27.67;27.67;18.90;41.40;;;;;;5117002;28;8880;-58
2021/10/03 07:20:10;;;;;;;;;28.33;28.33;18.90;41.30;;;;;;5115932;28;9414;-59
2021/10/03 07:22:36;;;;;;;;;27.67;27.67;18.90;41.00;;;;;;5117572;28;8762;-59
2021/10/03 07:25:02;;;;;;;;;32.50;31.50;19.00;40.90;;;;;;5117298;28;8818;-59
2021/10/03 07:27:27;;;;;;;;;40.75;36.25;19.10;40.90;;;;;;5116787;28;8757;-59
2021/10/03 07:29:54;;;;;;;;;49.25;41.75;19.20;40.80;;;;;;5116744;28;8789;-59
2021/10/03 07:32:20;;;;;;;;;52.00;45.00;19.30;40.80;;;;;;5116903;28;8813;-59
2021/10/03 07:34:46;;;;;;;;;56.75;46.75;19.40;40.80;;;;;;5117048;28;8785;-60
2021/10/03 07:37:12;;;;;;;;;57.00;48.00;19.40;40.80;;;;;;5117316;28;8826;-60
2021/10/03 07:39:38;;;;;;;;;60.25;50.00;19.40;41.70;;;;;;5115941;28;8851;-60
2021/10/03 07:42:05;;;;;;;;;57.25;48.75;19.50;40.70;;;;;;5116969;28;8804;-60
2021/10/03 07:44:31;;;;;;;;;61.50;50.50;19.40;40.20;;;;;;5116857;28;8773;-65
2021/10/03 07:46:57;;;;;;;;;58.00;49.00;19.50;40.60;;;;;;5116842;28;8785;-64
2021/10/03 07:49:22;;;;;;;;;60.25;50.25;19.50;40.40;;;;;;5116084;28;8846;-59
2021/10/03 07:51:48;;;;;;;;;57.50;48.75;19.60;40.40;;;;;;5116828;28;8906;-59
2021/10/03 07:54:14;;;;;;;;;61.75;52.25;19.70;40.20;;;;;;5116695;28;8774;-58
2021/10/03 07:56:40;;;;;;;;;66.00;54.50;19.80;39.90;;;;;;5116197;28;8774;-56
2021/10/03 07:59:07;;;;;;;;;74.25;64.50;20.00;39.80;;;;;;5113347;28;8854;-58
2021/10/03 08:01:32;;;;;;;;;62.25;51.75;19.90;39.80;;;;;;5116687;28;8789;-57
2021/10/03 08:03:58;;;;;;;;;60.50;50.00;20.00;39.90;;;;;;5116375;28;8882;-57
2021/10/03 08:06:27;;;;;;;;;65.25;54.25;20.10;39.60;;;;;;5116522;28;8790;-56
2021/10/03 08:08:54;;;;;;;;;43.00;37.25;20.20;39.90;;;;;;5116512;28;8790;-57
2021/10/03 08:11:20;;;;;;;;;48.00;42.00;20.20;39.70;;;;;;5116372;28;8813;-57
2021/10/03 08:13:46;;;;;;;;;68.50;56.25;20.30;39.00;;;;;;5112741;27;8824;-61
2021/10/03 08:16:11;;;;;;;;;68.50;56.50;20.50;39.10;;;;;;5116208;28;8797;-61
2021/10/03 08:18:37;;;;;;;;;62.75;51.75;20.50;39.00;;;;;;5115268;28;8774;-59
2021/10/03 08:21:04;;;;;;;;;55.00;45.50;20.50;38.80;;;;;;5114099;28;8808;-60
2021/10/03 08:23:30;;;;;;;;;75.50;70.00;20.60;38.30;;;;;;5116028;28;8782;-61
2021/10/03 08:25:57;;;;;;;;;69.75;60.75;20.70;38.80;;;;;;5115438;28;8781;-60
2021/10/03 08:28:23;;;;;;;;;65.00;53.00;20.90;38.90;;;;;;5114015;28;8792;-59
2021/10/03 08:30:49;;;;;;;;;61.75;52.00;20.90;38.30;;;;;;5115093;28;8878;-57
2021/10/03 08:33:15;;;;;;;;;67.00;55.00;21.00;38.10;;;;;;5116035;28;8802;-59
2021/10/03 08:35:41;;;;;;;;;64.25;52.50;21.10;37.90;;;;;;5116218;28;9540;-59
2021/10/03 08:38:07;;;;;;;;;59.50;49.75;21.20;37.60;;;;;;5115733;28;8766;-60
2021/10/03 08:40:34;;;;;;;;;51.00;44.00;21.30;38.20;;;;;;5115629;28;9554;-58
2021/10/03 08:43:00;;;;;;;;;50.25;42.75;21.30;37.60;;;;;;5115586;28;8792;-59
2021/10/03 08:45:25;;;;;;;;;41.50;37.75;21.40;36.70;;;;;;5115848;28;8770;-58
2021/10/03 08:47:51;;;;;;;;;40.33;36.67;21.40;37.80;;;;;;5115511;28;8769;-59
2021/10/03 08:50:18;;;;;;;;;59.25;49.75;21.60;37.20;;;;;;5115693;28;8758;-58
2021/10/03 08:52:46;;;;;;;;;56.50;47.50;21.80;37.50;;;;;;5115505;28;8777;-60
2021/10/03 08:55:14;;;;;;;;;60.75;51.00;21.90;37.10;;;;;;5115512;28;8754;-61
2021/10/03 08:57:41;;;;;;;;;51.25;44.25;22.10;37.00;;;;;;5115801;28;8762;-61
2021/10/03 09:00:06;;;;;;;;;57.75;48.00;22.20;36.20;;;;;;5115469;28;8753;-65
2021/10/03 09:02:56;;;;;;;;;48.67;42.00;22.20;36.20;;;;;;5115019;28;8884;-63
2021/10/03 09:05:24;;;;;;;;;32.67;32.00;22.40;35.90;;;;;;5112671;28;8824;-63
2021/10/03 09:08:01;;;;;;;;;34.00;33.00;22.40;35.50;;;;;;5114562;28;8765;-65
2021/10/03 09:10:41;;;;;;;;;28.00;28.00;22.50;36.20;;;;;;5112393;28;8873;-65
2021/10/03 09:13:07;;;;;;;;;28.67;28.67;22.50;36.40;;;;;;5114873;28;8757;-65
2021/10/03 09:15:33;;;;;;;;;25.67;25.67;22.70;35.70;;;;;;5114363;28;8958;-64
2021/10/03 09:17:59;;;;;;;;;41.00;37.00;22.80;35.10;;;;;;5115329;28;8753;-65
2021/10/03 09:20:26;;;;;;;;;33.00;32.00;23.00;34.50;;;;;;5115276;28;8773;-66
2021/10/03 09:23:00;;;;;;;;;41.33;37.33;23.00;34.40;;;;;;5115129;28;8850;-68
2021/10/03 09:25:29;;;;;;;;;50.00;43.25;23.10;34.70;;;;;;5115008;28;8756;-65
2021/10/03 09:27:55;;;;;;;;;50.25;42.75;23.20;34.00;;;;;;5114799;28;8765;-68
2021/10/03 09:30:21;;;;;;;;;46.50;40.75;23.30;34.50;;;;;;5115102;28;8757;-68
2021/10/03 09:32:58;;;;;;;;;36.67;33.00;23.40;33.90;;;;;;5114670;28;8770;-69
2021/10/03 09:35:26;;;;;;;;;39.33;36.00;23.50;34.00;;;;;;5114752;28;8777;-66
2021/10/03 09:37:52;;;;;;;;;41.67;37.33;23.60;33.40;;;;;;5114668;28;8780;-71
2021/10/03 09:40:18;;;;;;;;;51.75;44.50;23.60;33.70;;;;;;5115155;28;8813;-68
2021/10/03 09:43:02;;;;;;;;;51.67;44.00;23.70;33.50;;;;;;5113921;27;8777;-69
2021/10/03 09:45:28;;;;;;;;;44.00;39.67;23.80;33.30;;;;;;5114848;28;8779;-63
2021/10/03 09:48:04;;;;;;;;;51.25;44.25;23.90;33.40;;;;;;5114175;28;8888;-62
2021/10/03 09:50:33;;;;;;;;;53.75;46.00;24.00;33.10;;;;;;5113562;28;8828;-65
2021/10/03 09:53:01;;;;;;;;;44.67;39.00;24.10;32.90;;;;;;5110752;28;8782;-68
2021/10/03 09:55:27;;;;;;;;;50.25;43.25;24.30;33.10;;;;;;5114813;28;8808;-66
2021/10/03 09:57:57;;;;;;;;;55.00;47.00;24.30;32.60;;;;;;5114640;28;8746;-66
2021/10/03 10:00:25;;;;;;;;;55.75;46.00;24.40;33.00;;;;;;5114458;28;8888;-66
2021/10/03 10:02:52;;;;;;;;;52.00;44.50;24.60;32.50;;;;;;5113990;28;8777;-66
2021/10/03 10:05:24;;;;;;;;;36.67;34.33;24.80;31.80;;;;;;5114412;28;8872;-64
2021/10/03 10:07:50;;;;;;;;;39.33;36.00;25.10;32.10;;;;;;5114709;28;8774;-65
2021/10/03 10:10:16;;;;;;;;;33.67;32.00;25.30;31.30;;;;;;5114232;28;8740;-66
2021/10/03 10:13:01;;;;;;;;;41.67;36.67;25.60;31.10;;;;;;5114315;28;8882;-64
2021/10/03 10:15:27;;;;;;;;;50.75;43.50;26.00;31.10;;;;;;5096551;28;8796;-64
2021/10/03 10:17:53;;;;;;;;;34.00;33.00;26.20;29.90;;;;;;5096469;28;8766;-64
2021/10/03 10:20:24;;;;;;;;;25.00;25.00;26.50;29.80;;;;;;5114374;28;8778;-67
2021/10/03 10:23:01;;;;;;;;;28.00;27.33;26.80;29.20;;;;;;5114420;28;9499;-67
2021/10/03 10:25:57;;;;;;;;;46.00;40.00;27.00;28.70;;;;;;5114621;28;8770;-68
2021/10/03 10:28:29;;;;;;;;;49.00;41.00;27.00;28.50;;;;;;5015386;28;8793;-70
2021/10/03 10:31:14;;;;;;;;;24.33;24.00;27.20;28.50;;;;;;5015579;28;8808;-67
2021/10/03 10:33:53;;;;;;;;;29.33;29.33;27.60;28.20;;;;;;5013029;28;8825;-67
2021/10/03 10:36:28;;;;;;;;;26.00;26.00;27.70;27.70;;;;;;5015638;28;8816;-68
2021/10/03 10:39:09;;;;;;;;;33.67;32.33;27.80;27.40;;;;;;5014849;28;8814;-68
2021/10/03 10:41:38;;;;;;;;;31.67;30.67;27.80;27.30;;;;;;5013077;28;8881;-68
2021/10/03 10:44:28;;;;;;;;;24.33;24.33;28.30;26.90;;;;;;5013092;28;8835;-68
2021/10/03 10:46:59;;;;;;;;;24.67;23.67;28.40;26.40;;;;;;4997450;28;8940;-67
2021/10/03 10:49:37;;;;;;;;;18.00;17.67;28.60;26.30;;;;;;5015243;28;11580;-67
2021/10/03 10:52:17;;;;;;;;;28.67;28.67;28.80;26.30;;;;;;5015236;28;8847;-64
2021/10/03 10:55:04;;;;;;;;;29.00;29.00;29.20;26.20;;;;;;5015019;28;8875;-67
2021/10/03 10:57:31;;;;;;;;;24.33;24.33;29.40;26.10;;;;;;5015097;28;8980;-66
2021/10/03 11:00:16;;;;;;;;;27.00;27.00;29.60;25.40;;;;;;5015116;28;8814;-70
2021/10/03 11:02:51;;;;;;;;;26.00;26.00;29.90;25.90;;;;;;5014778;28;8793;-65
2021/10/03 11:05:42;;;;;;;;;26.33;26.33;30.10;25.00;;;;;;5088806;28;8772;-67
2021/10/03 11:08:19;;;;;;;;;24.67;24.67;30.60;23.90;;;;;;5117755;28;8770;-68
2021/10/03 11:11:00;;;;;;;;;21.33;21.33;33.70;21.40;;;;;;5099224;28;11509;-66
2021/10/03 11:13:38;;;;;;;;;21.25;21.25;37.60;18.60;;;;;;5117288;28;11494;-69
2021/10/03 11:16:25;;;;;;;;;21.00;21.00;41.00;16.80;;;;;;5117585;28;11450;-66
2021/10/03 11:19:13;;;;;;;;;23.00;23.00;42.50;15.30;;;;;;5117345;28;12087;-68
2021/10/03 11:21:56;;;;;;;;;20.00;20.00;43.80;14.60;;;;;;5117358;28;11444;-67
2021/10/03 11:24:25;;;;;;;;;24.00;24.00;44.70;13.60;;;;;;5117431;28;12145;-67
2021/10/03 11:26:58;;;;;;;;;28.67;28.67;46.60;13.60;;;;;;5116945;28;11435;-67
2021/10/03 11:29:30;;;;;;;;;24.00;24.00;48.20;12.60;;;;;;5117405;28;11449;-67
2021/10/03 11:31:58;;;;;;;;;26.00;26.00;49.70;12.00;;;;;;5116970;28;11476;-67
2021/10/03 11:34:32;;;;;;;;;26.67;26.33;49.60;11.30;;;;;;5117263;28;11488;-67
2021/10/03 11:37:03;;;;;;;;;20.00;20.00;48.80;10.80;;;;;;5116254;28;11450;-70
2021/10/03 11:39:33;;;;;;;;;19.00;19.00;48.70;11.20;;;;;;5116600;28;11473;-66
2021/10/03 11:41:59;;;;;;;;;25.33;25.33;48.40;11.20;;;;;;5116773;28;11455;-65
2021/10/03 11:44:25;;;;;;;;;21.25;21.25;49.70;10.90;;;;;;5116327;28;11451;-67
2021/10/03 11:46:57;;;;;;;;;17.00;17.00;50.60;10.50;;;;;;5116792;28;11461;-68
2021/10/03 11:49:28;;;;;;;;;19.00;18.50;50.30;10.50;;;;;;5116738;28;8874;-68
2021/10/03 11:51:57;;;;;;;;;19.00;17.25;51.00;10.40;;;;;;5098465;28;11488;-68
2021/10/03 11:54:31;;;;;;;;;17.00;17.00;50.60;9.80;;;;;;5116553;28;11501;-65
2021/10/03 11:56:57;;;;;;;;;21.33;21.33;51.40;10.10;;;;;;5116448;28;11451;-66
2021/10/03 11:59:22;;;;;;;;;16.75;16.75;51.40;9.80;;;;;;5115268;28;11461;-68
2021/10/03 12:01:48;;;;;;;;;18.25;17.25;51.10;9.30;;;;;;5114928;28;8801;-66
2021/10/03 12:04:27;;;;;;;;;18.75;18.75;51.20;9.40;;;;;;5116136;28;8810;-66
2021/10/03 12:06:53;;;;;;;;;17.00;17.00;49.60;9.40;;;;;;5115996;28;8770;-65
2021/10/03 12:09:21;;;;;;;;;16.00;16.00;50.60;9.90;;;;;;5115741;28;12092;-66
2021/10/03 12:11:49;;;;;;;;;13.75;13.75;51.50;9.80;;;;;;5115313;28;8844;-68
2021/10/03 12:14:15;;;;;;;;;16.00;16.00;52.80;9.50;;;;;;5115289;28;11436;-68
2021/10/03 12:16:54;;;;;;;;;18.50;18.50;53.80;9.20;;;;;;5115610;28;11448;-66
2021/10/03 12:19:20;;;;;;;;;18.33;18.33;54.40;8.90;;;;;;5114898;28;12128;-67
2021/10/03 12:21:46;;;;;;;;;18.75;18.75;55.20;8.60;;;;;;5116055;28;11412;-69
2021/10/03 12:24:12;;;;;;;;;17.25;17.25;55.40;8.40;;;;;;5116096;28;8753;-67
2021/10/03 12:26:46;;;;;;;;;7.00;6.25;55.30;8.30;;;;;;5116124;28;8762;-69
2021/10/03 12:29:21;;;;;;;;;17.00;17.00;54.10;8.00;;;;;;5115968;28;8762;-69
2021/10/03 12:32:13;;;;;;;;;16.00;16.00;55.20;8.50;;;;;;5115966;28;11483;-67
2021/10/03 12:34:51;;;;;;;;;26.00;26.00;54.10;7.70;;;;;;5116131;28;11463;-68
2021/10/03 12:37:21;;;;;;;;;32.67;30.00;53.80;8.30;;;;;;5115776;28;8746;-67
2021/10/03 12:39:53;;;;;;;;;24.67;24.67;54.70;8.50;;;;;;5115463;28;8866;-66